Time;durP1;ratioP1;P1;durP2;ratioP2;P2;SDS_P1;SDS_P2;PMS_P1;PMS_P2;Temp;Humidity;BMP_temperature;BMP_pressure;BME280_temperature;BME280_humidity;BME280_pressure;Samples;Min_cycle;Max_cycle;Signal;HPM_P1;HPM_P2
2021/12/30 00:01:23;;;;;;;56.80;10.45;;;;;;;9.30;90.50;101095.84;5028058;28;20536;-62
2021/12/30 00:03:49;;;;;;;66.22;12.88;;;;;;;9.32;90.45;101096.66;5027604;28;20021;-63
2021/12/30 00:06:21;;;;;;;63.83;11.90;;;;;;;9.38;90.48;101095.66;5027521;28;20033;-62
2021/12/30 00:08:48;;;;;;;67.07;11.48;;;;;;;9.46;90.10;101087.56;5027042;28;20027;-64
2021/12/30 00:11:13;;;;;;;68.82;12.48;;;;;;;9.52;89.95;101097.06;5027211;28;20045;-63
2021/12/30 00:13:44;;;;;;;63.35;10.48;;;;;;;9.54;89.88;101090.84;5027476;28;20491;-65
2021/12/30 00:16:09;;;;;;;54.15;8.10;;;;;;;9.62;89.96;101098.56;5028616;28;20033;-63
2021/12/30 00:18:35;;;;;;;47.72;8.32;;;;;;;9.70;89.76;101082.59;5027266;28;20041;-64
2021/12/30 00:21:00;;;;;;;57.75;8.10;;;;;;;9.75;89.81;101079.84;5027593;28;20021;-64
2021/12/30 00:23:25;;;;;;;53.85;9.77;;;;;;;9.80;89.67;101086.69;5035207;28;20029;-63
2021/12/30 00:25:51;;;;;;;63.75;10.57;;;;;;;9.83;89.34;101086.63;5046774;28;20021;-63
2021/12/30 00:28:21;;;;;;;60.70;9.18;;;;;;;9.90;89.61;101095.19;5046810;28;20036;-64
2021/12/30 00:30:48;;;;;;;55.55;9.15;;;;;;;9.92;89.38;101092.53;5046099;28;20191;-65
2021/12/30 00:33:13;;;;;;;50.47;9.35;;;;;;;10.03;89.25;101090.47;5040975;28;20036;-63
2021/12/30 00:35:39;;;;;;;44.33;9.57;;;;;;;10.03;89.15;101089.59;5028424;28;20030;-63
2021/12/30 00:38:05;;;;;;;48.70;9.05;;;;;;;10.06;89.12;101090.38;5026764;28;20349;-65
2021/12/30 00:40:31;;;;;;;57.78;9.85;;;;;;;10.11;89.35;101087.59;5027229;28;20021;-64
2021/12/30 00:42:56;;;;;;;46.97;9.38;;;;;;;10.17;89.10;101094.50;5026624;28;20021;-62
2021/12/30 00:45:22;;;;;;;41.13;9.40;;;;;;;10.24;89.53;101101.31;5028115;28;20026;-64
2021/12/30 00:47:47;;;;;;;50.20;8.98;;;;;;;10.29;89.40;101098.56;5026147;28;20372;-63
2021/12/30 00:50:13;;;;;;;47.83;10.13;;;;;;;10.28;89.25;101095.06;5028084;28;20033;-63
2021/12/30 00:52:38;;;;;;;45.13;10.35;;;;;;;10.30;89.47;101100.28;5025883;28;20120;-63
2021/12/30 00:55:05;;;;;;;47.78;10.65;;;;;;;10.33;89.46;101089.66;5026338;28;20140;-63
2021/12/30 00:57:30;;;;;;;46.58;10.95;;;;;;;10.32;89.19;101094.03;5024797;28;20029;-62
2021/12/30 00:59:55;;;;;;;45.10;9.18;;;;;;;10.40;89.59;101093.84;5027622;28;20028;-62
2021/12/30 01:02:21;;;;;;;46.97;10.13;;;;;;;10.43;89.59;101092.88;5027467;28;20582;-63
2021/12/30 01:04:46;;;;;;;42.42;10.23;;;;;;;10.48;89.54;101096.28;5024948;28;20499;-64
2021/12/30 01:07:11;;;;;;;46.33;10.57;;;;;;;10.52;89.29;101100.53;5026604;28;20033;-63
2021/12/30 01:09:37;;;;;;;41.20;9.95;;;;;;;10.53;89.17;101099.63;5024581;28;20025;-63
2021/12/30 01:12:02;;;;;;;46.08;9.88;;;;;;;10.51;89.66;101080.38;5026894;28;20021;-63
2021/12/30 01:14:31;;;;;;;38.67;11.50;;;;;;;10.56;89.51;101091.63;5026381;28;20440;-63
2021/12/30 01:17:00;;;;;;;41.30;11.93;;;;;;;10.56;89.32;101094.25;5026434;28;20091;-63
2021/12/30 01:21:53;;;;;;;41.50;11.55;;;;;;;10.60;89.63;101088.00;5026927;28;20048;-62
2021/12/30 01:24:19;;;;;;;38.10;11.95;;;;;;;10.63;89.07;101084.41;5021736;28;20492;-61
2021/12/30 01:26:46;;;;;;;43.35;13.43;;;;;;;10.60;89.70;101080.09;5026173;28;20029;-63
2021/12/30 01:29:11;;;;;;;38.38;12.30;;;;;;;10.63;89.71;101086.19;5026188;28;20030;-63
2021/12/30 01:31:36;;;;;;;42.20;12.07;;;;;;;10.64;89.55;101098.44;5026745;28;20118;-64
2021/12/30 01:34:02;;;;;;;32.15;12.13;;;;;;;10.66;89.30;101107.19;5034146;28;20017;-62
2021/12/30 01:36:27;;;;;;;36.55;11.68;;;;;;;10.68;89.82;101121.16;5045793;28;20372;-64
2021/12/30 01:38:54;;;;;;;43.58;12.40;;;;;;;10.66;89.67;101120.34;5045262;28;20052;-62
2021/12/30 01:41:20;;;;;;;43.28;13.18;;;;;;;10.69;89.79;101139.56;5046122;28;20075;-64
2021/12/30 01:43:46;;;;;;;33.55;10.85;;;;;;;10.70;89.57;101140.44;5039364;28;20045;-61
2021/12/30 01:46:11;;;;;;;38.35;12.43;;;;;;;10.68;89.83;101144.88;5026896;28;20030;-64
2021/12/30 01:48:37;;;;;;;39.28;13.23;;;;;;;10.69;90.04;101146.63;5024575;28;20467;-64
2021/12/30 01:51:04;;;;;;;41.25;12.52;;;;;;;10.71;89.82;101147.41;5026447;28;20029;-62
2021/12/30 01:53:29;;;;;;;44.17;12.07;;;;;;;10.71;89.95;101156.19;5026402;28;20104;-62
2021/12/30 01:55:54;;;;;;;48.53;12.52;;;;;;;10.71;89.62;101147.41;5025660;28;20037;-62
2021/12/30 01:58:20;;;;;;;33.95;12.18;;;;;;;10.74;89.70;101149.97;5025170;28;20029;-62
2021/12/30 02:00:48;;;;;;;36.47;11.20;;;;;;;10.73;89.99;101159.66;5026438;28;20104;-61
2021/12/30 02:03:13;;;;;;;37.92;11.85;;;;;;;10.74;89.88;101155.22;5025968;28;20025;-62
2021/12/30 02:05:40;;;;;;;39.03;12.73;;;;;;;10.76;90.01;101148.16;5025689;28;20029;-61
2021/12/30 02:08:07;;;;;;;40.95;10.35;;;;;;;10.74;90.02;101135.03;5025359;28;20026;-62
2021/12/30 02:10:33;;;;;;;39.72;13.18;;;;;;;10.79;89.83;101141.94;5026826;28;20514;-62
2021/12/30 02:12:58;;;;;;;41.75;12.73;;;;;;;10.78;89.87;101143.72;5030403;28;20064;-62
2021/12/30 02:15:24;;;;;;;36.22;12.23;;;;;;;10.79;89.78;101142.81;5029848;28;20030;-65
2021/12/30 02:17:52;;;;;;;35.67;12.38;;;;;;;10.79;89.83;101142.81;5030068;28;20033;-62
2021/12/30 02:20:37;;;;;;;37.15;13.77;;;;;;;10.79;90.18;101142.81;5041085;28;20033;-62
2021/12/30 02:23:03;;;;;;;31.55;12.40;;;;;;;10.85;89.99;101142.63;5049792;28;20037;-62
2021/12/30 02:25:29;;;;;;;34.58;11.40;;;;;;;10.86;89.87;101139.06;5048840;28;20036;-61
2021/12/30 02:27:54;;;;;;;29.70;11.70;;;;;;;10.90;89.63;101136.34;5049699;28;20045;-62
2021/12/30 02:30:19;;;;;;;29.23;11.82;;;;;;;10.89;89.60;101140.75;5038324;28;20108;-62
2021/12/30 02:32:45;;;;;;;28.48;11.55;;;;;;;10.91;90.05;101144.19;5048825;28;20720;-63
2021/12/30 02:35:10;;;;;;;27.20;11.40;;;;;;;10.90;89.96;101149.53;5048515;28;20025;-63
2021/12/30 02:37:35;;;;;;;32.47;11.93;;;;;;;10.83;90.44;101151.47;5049112;28;20095;-64
2021/12/30 02:40:01;;;;;;;25.25;11.88;;;;;;;10.93;90.00;101154.69;5048448;28;20032;-61
2021/12/30 02:42:26;;;;;;;24.35;11.57;;;;;;;10.96;89.89;101158.09;5039410;28;20357;-61
2021/12/30 02:44:52;;;;;;;27.77;10.77;;;;;;;11.00;89.80;101172.06;5028597;28;20057;-63
2021/12/30 02:47:17;;;;;;;20.65;10.65;;;;;;;11.06;89.37;101169.25;5029156;28;20125;-63
2021/12/30 02:49:43;;;;;;;22.08;11.25;;;;;;;11.07;89.81;101165.69;5029431;28;20112;-61
2021/12/30 02:52:09;;;;;;;20.55;10.00;;;;;;;11.05;89.37;101175.41;5029551;28;20034;-63
2021/12/30 02:54:38;;;;;;;22.38;9.48;;;;;;;11.09;89.82;101171.78;5028033;28;20065;-61
2021/12/30 02:57:03;;;;;;;22.20;8.63;;;;;;;11.11;89.54;101169.09;5029507;28;20037;-64
2021/12/30 02:59:28;;;;;;;21.48;8.73;;;;;;;11.14;89.84;101160.22;5028762;28;20029;-64
2021/12/30 03:01:55;;;;;;;19.70;7.78;;;;;;;11.14;89.61;101161.09;5029696;28;20033;-64
2021/12/30 03:04:20;;;;;;;22.40;8.93;;;;;;;11.13;89.77;101159.34;5028529;28;20030;-62
2021/12/30 03:06:45;;;;;;;15.95;8.10;;;;;;;11.14;89.98;101163.72;5027611;28;20023;-64
2021/12/30 03:09:11;;;;;;;21.58;7.78;;;;;;;11.14;90.19;101157.59;5027236;28;20026;-61
2021/12/30 03:11:36;;;;;;;19.33;7.50;;;;;;;11.16;90.17;101159.25;5029435;28;20049;-63
2021/12/30 03:14:02;;;;;;;20.90;7.60;;;;;;;11.19;90.26;101151.25;5028542;28;20057;-62
2021/12/30 03:16:32;;;;;;;17.92;7.53;;;;;;;11.18;90.17;101153.94;5029209;28;20024;-62
2021/12/30 03:18:59;;;;;;;20.00;8.25;;;;;;;11.19;90.33;101155.66;5027962;28;20030;-62
2021/12/30 03:21:25;;;;;;;26.02;8.27;;;;;;;11.17;90.07;101153.06;5027977;28;20030;-61
2021/12/30 03:23:53;;;;;;;22.08;8.00;;;;;;;11.21;90.32;101153.84;5027617;28;20033;-62
2021/12/30 03:26:19;;;;;;;19.45;8.18;;;;;;;11.22;89.89;101158.19;5029013;28;20021;-62
2021/12/30 03:28:45;;;;;;;20.10;7.63;;;;;;;11.19;89.98;101166.19;5028569;28;20029;-63
2021/12/30 03:31:12;;;;;;;22.35;8.07;;;;;;;11.22;90.06;101160.84;5028848;28;20108;-62
2021/12/30 03:33:38;;;;;;;23.50;8.48;;;;;;;11.17;90.54;101154.84;5028614;28;20021;-63
2021/12/30 03:36:05;;;;;;;25.23;8.70;;;;;;;11.20;90.24;101167.94;5028477;28;20112;-62
2021/12/30 03:38:35;;;;;;;28.65;9.45;;;;;;;11.21;90.47;101159.13;5029047;28;20171;-62
2021/12/30 03:41:01;;;;;;;32.70;10.50;;;;;;;11.19;90.36;101164.44;5025308;28;20295;-62
2021/12/30 03:43:27;;;;;;;26.48;9.60;;;;;;;11.16;90.23;101156.63;5027817;28;20543;-62
2021/12/30 03:45:52;;;;;;;30.75;10.30;;;;;;;11.15;90.26;101168.09;5026686;28;20111;-62
2021/12/30 03:48:18;;;;;;;28.90;10.35;;;;;;;11.11;90.89;101182.28;5026622;28;20676;-63
2021/12/30 03:50:44;;;;;;;27.60;11.20;;;;;;;11.10;91.02;101184.06;5029019;28;20017;-62
2021/12/30 03:53:12;;;;;;;29.63;10.52;;;;;;;11.08;91.01;101187.66;5025750;28;20535;-62
2021/12/30 03:55:38;;;;;;;27.00;10.05;;;;;;;11.10;90.90;101185.81;5029769;28;20061;-62
2021/12/30 03:58:04;;;;;;;31.15;11.00;;;;;;;11.07;90.80;101194.69;5028083;28;20642;-62
2021/12/30 04:00:30;;;;;;;28.70;11.15;;;;;;;11.08;91.12;101187.66;5028273;28;20037;-61
2021/12/30 04:02:55;;;;;;;39.38;13.10;;;;;;;11.07;91.01;101178.88;5027969;28;20409;-62
2021/12/30 04:05:22;;;;;;;29.77;13.30;;;;;;;11.07;91.00;101185.91;5028547;28;20029;-62
2021/12/30 04:07:47;;;;;;;38.05;14.38;;;;;;;11.08;91.23;101185.84;5027284;28;20024;-62
2021/12/30 04:10:14;;;;;;;44.05;12.93;;;;;;;11.10;91.01;101181.41;5027857;28;20372;-61
2021/12/30 04:12:40;;;;;;;39.63;12.55;;;;;;;11.10;90.90;101173.50;5029147;28;20391;-61
2021/12/30 04:15:07;;;;;;;28.02;12.70;;;;;;;11.10;90.80;101168.22;5027389;28;20031;-62
2021/12/30 04:17:32;;;;;;;30.77;12.38;;;;;;;11.14;90.77;101173.41;5028046;28;20013;-62
2021/12/30 04:19:58;;;;;;;34.88;12.18;;;;;;;11.16;90.78;101176.84;5027123;28;20036;-61
2021/12/30 04:22:23;;;;;;;28.05;11.35;;;;;;;11.17;90.80;101179.44;5026455;28;20021;-62
2021/12/30 04:24:49;;;;;;;27.48;11.38;;;;;;;11.18;90.45;101177.66;5034004;28;20103;-61
2021/12/30 04:27:14;;;;;;;26.08;9.00;;;;;;;11.24;90.40;101185.41;5018822;28;20034;-61
2021/12/30 04:29:40;;;;;;;23.70;10.30;;;;;;;11.28;90.09;101178.22;5007420;28;20022;-64
2021/12/30 04:32:05;;;;;;;25.83;9.15;;;;;;;11.27;90.18;101180.03;5007182;28;20428;-63
2021/12/30 04:34:31;;;;;;;27.17;8.45;;;;;;;11.32;89.82;101175.47;5019810;28;20056;-62
2021/12/30 04:36:59;;;;;;;21.27;7.82;;;;;;;11.35;89.62;101190.34;5027554;28;20056;-62
2021/12/30 04:39:26;;;;;;;19.95;7.93;;;;;;;11.37;89.96;101185.88;5010693;28;20117;-64
2021/12/30 04:41:51;;;;;;;24.92;8.43;;;;;;;11.34;89.88;101181.56;5007832;28;20476;-62
2021/12/30 04:44:16;;;;;;;29.75;8.35;;;;;;;11.35;89.89;101179.78;5014443;28;20026;-62
2021/12/30 04:46:41;;;;;;;23.13;7.53;;;;;;;11.36;89.73;101179.75;5026926;28;20108;-62
2021/12/30 04:49:07;;;;;;;21.92;7.40;;;;;;;11.41;89.49;101179.56;5026501;28;20053;-62
2021/12/30 04:51:32;;;;;;;26.83;7.63;;;;;;;11.41;89.18;101181.38;5026757;28;20559;-62
2021/12/30 04:53:57;;;;;;;22.30;8.05;;;;;;;11.38;89.58;101172.63;5026165;28;20037;-64
2021/12/30 04:56:23;;;;;;;21.38;7.80;;;;;;;11.43;89.60;101195.34;5020041;28;20484;-62
2021/12/30 04:58:48;;;;;;;26.33;7.35;;;;;;;11.40;89.25;101193.69;5017688;28;20064;-62
2021/12/30 05:01:13;;;;;;;24.88;8.45;;;;;;;11.43;88.98;101190.09;5010650;28;20021;-62
2021/12/30 05:03:39;;;;;;;23.42;6.80;;;;;;;11.43;89.08;101192.72;5010957;28;20022;-62
2021/12/30 05:06:04;;;;;;;18.13;7.18;;;;;;;11.43;88.81;101184.81;5021699;28;20479;-62
2021/12/30 05:08:30;;;;;;;18.58;6.85;;;;;;;11.43;89.02;101185.69;5014609;28;20026;-64
2021/12/30 05:10:55;;;;;;;21.30;6.90;;;;;;;11.43;88.69;101190.09;5038062;28;20037;-63
2021/12/30 05:13:20;;;;;;;21.40;6.47;;;;;;;11.38;89.09;101177.91;5046744;28;20028;-62
2021/12/30 05:15:48;;;;;;;14.40;5.25;;;;;;;11.36;88.95;101182.38;5046161;28;20107;-63
2021/12/30 05:18:15;;;;;;;20.13;6.30;;;;;;;11.35;88.78;101182.44;5047394;28;20029;-60
2021/12/30 05:20:41;;;;;;;17.70;5.93;;;;;;;11.38;88.98;101179.69;5031258;28;20017;-64
2021/12/30 05:23:07;;;;;;;14.77;5.13;;;;;;;11.37;89.12;101186.75;5026782;28;20029;-62
2021/12/30 05:25:33;;;;;;;20.85;4.95;;;;;;;11.29;89.34;101183.47;5024790;28;20037;-61
2021/12/30 05:27:58;;;;;;;15.10;4.60;;;;;;;11.35;89.21;101191.19;5024780;28;20057;-62
2021/12/30 05:30:25;;;;;;;21.58;4.20;;;;;;;11.36;88.95;101192.94;5015519;28;20389;-61
2021/12/30 05:32:52;;;;;;;15.73;4.70;;;;;;;11.40;88.81;101185.78;5006398;28;20116;-61
2021/12/30 05:35:18;;;;;;;14.35;4.63;;;;;;;11.46;88.75;101182.94;5016871;28;20025;-62
2021/12/30 05:37:43;;;;;;;13.68;4.72;;;;;;;11.49;88.56;101179.34;5026137;28;20028;-63
2021/12/30 05:40:13;;;;;;;16.85;4.53;;;;;;;11.52;88.64;101179.25;5025006;28;20475;-60
2021/12/30 05:42:38;;;;;;;27.15;6.03;;;;;;;11.55;88.53;101178.28;5025420;28;20033;-62
2021/12/30 05:45:04;;;;;;;16.77;5.22;;;;;;;11.55;88.34;101202.00;5025551;28;20060;-63
2021/12/30 05:47:30;;;;;;;18.35;4.75;;;;;;;11.55;88.41;101175.63;5008820;28;20534;-61
2021/12/30 05:49:56;;;;;;;15.35;4.63;;;;;;;11.58;88.28;101179.03;5016801;28;20037;-62
2021/12/30 05:52:21;;;;;;;11.48;4.13;;;;;;;11.56;88.01;101178.22;5005834;28;20084;-61
2021/12/30 05:54:46;;;;;;;14.05;3.55;;;;;;;11.61;87.91;101178.06;5000332;28;20025;-62
2021/12/30 05:57:12;;;;;;;14.77;3.55;;;;;;;11.65;88.23;101192.03;5046757;28;20035;-62
2021/12/30 05:59:37;;;;;;;18.38;3.47;;;;;;;11.63;88.29;101211.41;5045447;28;20025;-62
2021/12/30 06:02:03;;;;;;;9.98;3.20;;;;;;;11.66;87.87;101209.59;5027755;28;20044;-63
2021/12/30 06:04:28;;;;;;;12.10;2.97;;;;;;;11.68;87.73;101226.25;5010001;28;20199;-62
2021/12/30 06:06:54;;;;;;;10.48;2.67;;;;;;;11.69;87.92;101227.97;5021073;28;20116;-61
2021/12/30 06:09:22;;;;;;;13.50;2.90;;;;;;;11.65;87.96;101208.72;5015684;28;20394;-62
2021/12/30 06:11:48;;;;;;;13.95;3.15;;;;;;;11.65;88.05;101216.66;5024691;28;20037;-62
2021/12/30 06:14:13;;;;;;;13.05;2.90;;;;;;;11.62;88.46;101219.41;5010379;28;20346;-62
2021/12/30 06:16:38;;;;;;;10.20;2.75;;;;;;;11.58;88.31;101216.00;5005924;28;20460;-64
2021/12/30 06:19:04;;;;;;;7.00;3.47;;;;;;;11.59;88.38;101217.72;5006809;28;20042;-62
2021/12/30 06:21:29;;;;;;;12.63;2.95;;;;;;;11.58;88.36;101220.41;5011406;28;20037;-62
2021/12/30 06:23:54;;;;;;;4.78;2.33;;;;;;;11.55;88.51;101229.28;5007255;28;20022;-62
2021/12/30 06:26:20;;;;;;;10.82;2.97;;;;;;;11.54;88.62;101231.97;5024677;28;20029;-61
2021/12/30 06:28:45;;;;;;;9.68;3.40;;;;;;;11.55;88.33;101238.97;5023597;28;20025;-61
2021/12/30 06:31:10;;;;;;;6.93;3.08;;;;;;;11.53;88.45;101238.16;5019204;28;20029;-62
2021/12/30 06:33:36;;;;;;;11.70;3.83;;;;;;;11.45;89.03;101235.75;5026483;28;20060;-62
2021/12/30 06:36:01;;;;;;;6.82;3.60;;;;;;;11.48;88.69;101230.41;5022479;28;20579;-61
2021/12/30 06:38:27;;;;;;;7.75;3.30;;;;;;;11.43;89.03;101219.97;5025348;28;20353;-62
2021/12/30 06:40:52;;;;;;;10.88;3.33;;;;;;;11.42;88.81;101239.38;5023628;28;20536;-67
2021/12/30 06:43:17;;;;;;;9.48;3.45;;;;;;;11.46;88.72;101248.03;5026148;28;20036;-67
2021/12/30 06:45:44;;;;;;;13.40;3.95;;;;;;;11.43;88.93;101241.09;5025685;28;20025;-65
2021/12/30 06:48:14;;;;;;;6.78;2.67;;;;;;;11.41;88.57;101239.41;5024250;28;20040;-62
2021/12/30 06:50:39;;;;;;;10.20;3.05;;;;;;;11.41;88.96;101249.97;5025532;28;20367;-63
2021/12/30 06:53:04;;;;;;;8.13;2.55;;;;;;;11.33;89.06;101266.03;5024942;28;20028;-64
2021/12/30 06:55:30;;;;;;;6.35;2.50;;;;;;;11.36;88.96;101272.09;5025878;28;20068;-63
2021/12/30 06:57:55;;;;;;;4.93;2.17;;;;;;;11.31;89.31;101260.78;5026843;28;20037;-65
2021/12/30 07:00:21;;;;;;;7.70;2.47;;;;;;;11.30;89.29;101255.56;5020198;28;20037;-64
2021/12/30 07:02:46;;;;;;;8.38;2.70;;;;;;;11.30;89.50;101272.28;5021033;28;20037;-64
2021/12/30 07:05:12;;;;;;;9.27;3.45;;;;;;;11.25;89.65;101256.56;5028413;28;20052;-64
2021/12/30 07:07:37;;;;;;;9.50;3.00;;;;;;;11.27;89.97;101263.56;5025853;28;20337;-64
2021/12/30 07:10:04;;;;;;;16.17;3.63;;;;;;;11.24;89.87;101246.94;5017721;28;20057;-60
2021/12/30 07:12:30;;;;;;;14.82;3.55;;;;;;;11.25;89.91;101248.66;5028539;28;20033;-65
2021/12/30 07:14:57;;;;;;;13.98;4.38;;;;;;;11.22;90.16;101268.97;5027866;28;20082;-62
2021/12/30 07:17:22;;;;;;;15.77;4.60;;;;;;;11.19;90.11;101261.16;5029421;28;20013;-61
2021/12/30 07:19:47;;;;;;;26.70;5.50;;;;;;;11.18;89.87;101276.13;5028464;28;20079;-61
2021/12/30 07:22:13;;;;;;;21.10;5.15;;;;;;;11.19;89.98;101271.72;5029815;28;20435;-61
2021/12/30 07:24:38;;;;;;;28.85;6.18;;;;;;;11.19;89.89;101276.97;5027244;28;20022;-63
2021/12/30 07:27:04;;;;;;;23.05;6.28;;;;;;;11.19;89.64;101287.53;5028714;28;20114;-61
2021/12/30 07:29:29;;;;;;;23.42;6.75;;;;;;;11.23;89.82;101286.56;5028074;28;20041;-62
2021/12/30 07:31:54;;;;;;;30.63;7.40;;;;;;;11.18;89.63;101285.81;5028397;28;20037;-64
2021/12/30 07:34:19;;;;;;;26.52;6.25;;;;;;;11.17;89.74;101286.72;5026923;28;20029;-66
2021/12/30 07:36:45;;;;;;;27.75;6.38;;;;;;;11.25;89.40;101313.72;5027988;28;20025;-67
2021/12/30 07:39:10;;;;;;;32.67;7.03;;;;;;;11.25;89.44;101314.63;5027080;28;20014;-62
2021/12/30 07:41:39;;;;;;;27.50;6.18;;;;;;;11.29;89.10;101310.09;5028643;28;20096;-63
2021/12/30 07:44:04;;;;;;;27.92;5.95;;;;;;;11.29;89.08;101315.38;5024809;28;20114;-61
2021/12/30 07:46:31;;;;;;;23.65;5.93;;;;;;;11.34;88.41;101318.75;5027748;28;20488;-61
2021/12/30 07:48:56;;;;;;;25.45;5.22;;;;;;;11.37;88.30;101316.03;5027619;28;20104;-62
2021/12/30 07:51:21;;;;;;;27.42;6.38;;;;;;;11.36;88.24;101310.78;5027400;28;20104;-65
2021/12/30 07:53:47;;;;;;;36.72;7.30;;;;;;;11.36;88.71;101332.78;5027260;28;20057;-70
2021/12/30 07:56:12;;;;;;;27.70;6.15;;;;;;;11.36;88.13;101338.06;5032968;28;20027;-71
2021/12/30 07:58:37;;;;;;;22.17;5.22;;;;;;;11.37;88.15;101331.84;5027454;28;20021;-69
2021/12/30 08:01:03;;;;;;;35.83;7.03;;;;;;;11.37;88.03;101328.34;5028313;28;20067;-71
2021/12/30 08:03:28;;;;;;;29.40;6.13;;;;;;;11.35;88.49;101324.91;5027865;28;20033;-62
2021/12/30 08:05:54;;;;;;;28.33;5.50;;;;;;;11.39;87.99;101331.81;5025415;28;20021;-66
2021/12/30 08:08:19;;;;;;;24.40;5.88;;;;;;;11.42;88.11;101336.13;5026291;28;20045;-65
2021/12/30 08:10:44;;;;;;;35.25;5.93;;;;;;;11.40;88.00;101327.38;5026098;28;20038;-64
2021/12/30 08:13:10;;;;;;;31.08;5.85;;;;;;;11.42;88.09;101330.84;5027056;28;20025;-66
2021/12/30 08:15:35;;;;;;;33.50;5.47;;;;;;;11.47;87.64;101323.69;5024999;28;20017;-65
2021/12/30 08:18:01;;;;;;;35.88;5.35;;;;;;;11.49;87.47;101327.09;5023983;28;20029;-65
2021/12/30 08:20:27;;;;;;;35.80;4.95;;;;;;;11.50;87.15;101340.25;5026735;28;20144;-72
2021/12/30 08:22:53;;;;;;;36.10;6.63;;;;;;;11.51;87.38;101338.50;5027381;28;20105;-60
2021/12/30 08:25:19;;;;;;;29.73;5.38;;;;;;;11.50;87.47;101345.53;5027298;28;20041;-72
2021/12/30 08:27:45;;;;;;;37.47;6.25;;;;;;;11.46;87.67;101345.66;5026733;28;20582;-67
2021/12/30 08:30:13;;;;;;;37.90;6.15;;;;;;;11.52;87.20;101356.06;5027442;28;20116;-69
2021/12/30 08:32:39;;;;;;;41.38;6.63;;;;;;;11.47;87.48;101355.34;5028013;28;20025;-72
2021/12/30 08:35:06;;;;;;;37.10;5.28;;;;;;;11.53;86.98;101365.69;5019428;28;20033;-73
2021/12/30 08:37:33;;;;;;;36.65;7.95;;;;;;;11.54;86.86;101370.06;5027445;28;20024;-70
2021/12/30 08:40:01;;;;;;;37.45;6.25;;;;;;;11.50;87.28;101360.53;5025565;28;20096;-71
2021/12/30 08:42:27;;;;;;;45.85;6.47;;;;;;;11.58;86.77;101353.22;5027785;28;20028;-72
2021/12/30 08:44:55;;;;;;;45.08;6.25;;;;;;;11.60;86.78;101372.53;5026695;28;20022;-72
2021/12/30 08:47:20;;;;;;;36.28;6.30;;;;;;;11.63;86.45;101369.78;5025211;28;20055;-71
2021/12/30 08:49:46;;;;;;;35.35;6.65;;;;;;;11.66;86.33;101371.50;5026634;28;20103;-69
2021/12/30 08:52:16;;;;;;;41.00;6.75;;;;;;;11.71;86.34;101368.72;5026748;28;20022;-73
2021/12/30 08:54:42;;;;;;;36.28;5.43;;;;;;;11.67;86.01;101359.13;5026311;28;20064;-73
2021/12/30 08:57:07;;;;;;;40.50;6.63;;;;;;;11.70;86.07;101388.09;5027558;28;20534;-73
2021/12/30 08:59:34;;;;;;;36.42;5.63;;;;;;;11.74;85.50;101368.63;5026504;28;20025;-70
2021/12/30 09:02:00;;;;;;;39.63;6.22;;;;;;;11.74;85.83;101373.91;5026850;28;20100;-74
2021/12/30 09:04:26;;;;;;;38.72;5.93;;;;;;;11.76;85.63;101369.44;5027174;28;20116;-73
2021/12/30 09:06:52;;;;;;;38.10;6.50;;;;;;;11.82;85.21;101371.88;5019991;28;20041;-74
2021/12/30 09:09:17;;;;;;;40.38;7.22;;;;;;;11.82;85.30;101377.16;5026388;28;20025;-74
2021/12/30 09:11:43;;;;;;;36.25;5.45;;;;;;;11.78;85.26;101383.47;5023148;28;20076;-64
2021/12/30 09:14:08;;;;;;;32.90;6.15;;;;;;;11.88;85.09;101370.81;5026452;28;20145;-65
2021/12/30 09:16:33;;;;;;;37.42;5.53;;;;;;;11.86;84.86;101384.06;5017488;28;20052;-63
2021/12/30 09:19:00;;;;;;;33.35;5.35;;;;;;;11.93;84.71;101383.88;5021111;28;20052;-63
2021/12/30 09:21:26;;;;;;;32.88;5.32;;;;;;;11.98;84.51;101387.28;5031153;28;20029;-64
2021/12/30 09:23:51;;;;;;;40.28;5.68;;;;;;;12.06;84.31;101387.00;5028999;28;20033;-69
2021/12/30 09:26:16;;;;;;;38.17;6.45;;;;;;;12.08;84.01;101403.72;5022038;28;20105;-72
2021/12/30 09:28:42;;;;;;;30.40;5.40;;;;;;;12.15;83.85;101394.69;5027128;28;20021;-62
2021/12/30 09:31:07;;;;;;;30.85;4.68;;;;;;;12.20;83.54;101407.75;5021267;28;20080;-66
2021/12/30 09:33:33;;;;;;;35.22;5.53;;;;;;;12.20;83.74;101397.19;5024518;28;20101;-69
2021/12/30 09:36:01;;;;;;;32.15;5.50;;;;;;;12.20;83.79;101413.03;5022646;28;20392;-67
2021/12/30 09:38:27;;;;;;;35.13;5.45;;;;;;;12.24;83.57;101414.66;5024286;28;20031;-60
2021/12/30 09:40:52;;;;;;;41.22;5.82;;;;;;;12.23;83.50;101400.59;5025591;28;20101;-61
2021/12/30 09:43:17;;;;;;;32.00;5.90;;;;;;;12.19;83.82;101419.22;5026805;28;20113;-61
2021/12/30 09:45:43;;;;;;;28.80;4.85;;;;;;;12.17;84.23;101423.69;5025322;28;20021;-61
2021/12/30 09:48:11;;;;;;;25.52;5.07;;;;;;;12.07;84.51;101423.97;5024000;28;20029;-61
2021/12/30 09:50:42;;;;;;;37.37;5.07;;;;;;;12.04;84.48;101423.19;5025922;28;20025;-60
2021/12/30 09:53:08;;;;;;;29.05;5.40;;;;;;;11.97;85.23;101455.06;5022329;28;20061;-61
2021/12/30 09:55:34;;;;;;;35.90;6.15;;;;;;;11.98;85.40;101430.38;5022549;28;20138;-63
2021/12/30 09:58:00;;;;;;;37.20;5.25;;;;;;;11.94;85.58;101434.03;5024521;28;20024;-63
2021/12/30 10:00:26;;;;;;;32.47;5.40;;;;;;;11.92;85.37;101461.41;5025276;28;20018;-60
2021/12/30 10:02:51;;;;;;;31.92;5.47;;;;;;;11.88;85.53;101419.22;5023415;28;20067;-61
2021/12/30 10:05:19;;;;;;;39.28;5.32;;;;;;;11.96;85.32;101437.50;5022631;28;20417;-60
2021/12/30 10:07:46;;;;;;;30.05;4.97;;;;;;;12.00;85.31;101438.25;5023792;28;20029;-60
2021/12/30 10:10:28;;;;;;;29.42;4.60;;;;;;;12.00;84.97;101438.25;5024507;28;20037;-61
2021/12/30 10:12:53;;;;;;;25.42;5.15;;;;;;;12.02;85.18;101468.13;5023766;28;20121;-61
2021/12/30 10:15:24;;;;;;;22.92;4.82;;;;;;;12.01;84.94;101451.41;5022825;28;20769;-61
2021/12/30 10:17:58;;;;;;;28.52;5.20;;;;;;;12.03;84.90;101437.28;5024501;28;20017;-61
2021/12/30 10:20:28;;;;;;;36.30;4.95;;;;;;;12.03;84.98;101443.44;5023587;28;20022;-60
2021/12/30 10:23:06;;;;;;;32.90;6.03;;;;;;;12.01;84.98;101432.03;5022147;28;20538;-63
2021/12/30 10:25:34;;;;;;;29.55;5.05;;;;;;;11.94;85.37;101454.28;5020137;28;20449;-62
2021/12/30 10:28:23;;;;;;;21.00;4.50;;;;;;;11.96;85.20;101429.56;5024046;28;20029;-62
2021/12/30 10:31:01;;;;;;;26.17;4.28;;;;;;;12.00;84.97;101414.47;5024343;28;20384;-62
2021/12/30 10:33:28;;;;;;;32.30;4.70;;;;;;;12.01;84.97;101419.72;5028136;28;20022;-61
2021/12/30 10:35:54;;;;;;;26.58;5.13;;;;;;;11.98;85.28;101430.38;5026997;28;20071;-61
2021/12/30 10:38:20;;;;;;;25.88;5.47;;;;;;;12.05;85.09;101449.56;5026084;28;20443;-60
2021/12/30 10:40:48;;;;;;;25.58;4.60;;;;;;;12.04;84.82;101420.53;5027554;28;20029;-60
2021/12/30 10:43:31;;;;;;;22.33;5.05;;;;;;;11.97;84.83;101460.34;5026250;28;20021;-60
2021/12/30 10:46:15;;;;;;;25.63;5.07;;;;;;;12.01;84.86;101435.56;5027562;28;20029;-60
2021/12/30 10:49:04;;;;;;;28.90;4.65;;;;;;;11.99;84.77;101429.47;5026145;28;20036;-61
2021/12/30 10:51:39;;;;;;;29.83;4.85;;;;;;;11.98;84.81;101418.97;5028179;28;20056;-61
2021/12/30 10:54:18;;;;;;;26.65;4.32;;;;;;;12.03;84.66;101424.06;5026183;28;20037;-63
2021/12/30 10:56:49;;;;;;;20.88;3.75;;;;;;;12.05;85.00;101417.84;5025960;28;20065;-64
2021/12/30 10:59:15;;;;;;;18.60;3.65;;;;;;;12.00;84.95;101427.69;5027333;28;20026;-61
2021/12/30 11:02:06;;;;;;;19.20;4.10;;;;;;;11.92;85.59;101430.53;5027840;28;20041;-61
2021/12/30 11:04:46;;;;;;;33.05;5.65;;;;;;;11.90;85.77;101434.16;5025688;28;20468;-61
2021/12/30 11:07:15;;;;;;;17.58;4.40;;;;;;;11.90;85.60;101444.72;5025293;28;20686;-63
2021/12/30 11:09:58;;;;;;;18.38;4.88;;;;;;;11.94;85.51;101438.44;5027028;28;20401;-62
2021/12/30 11:12:29;;;;;;;23.83;3.88;;;;;;;11.98;85.63;101445.38;5019414;28;20037;-62
2021/12/30 11:14:56;;;;;;;24.15;3.90;;;;;;;12.00;85.35;101433.84;5021294;28;20370;-62
2021/12/30 11:17:33;;;;;;;23.05;3.70;;;;;;;12.08;84.68;101451.25;5025914;28;20688;-61